createdAt,value
2023-04-11T00:00:01.337Z,59.4
2023-04-11T00:01:01.368Z,59.2
2023-04-11T00:02:01.847Z,59.0
2023-04-11T00:03:01.491Z,59.0
2023-04-11T00:04:01.525Z,58.8
2023-04-11T00:05:01.441Z,58.8
2023-04-11T00:06:01.375Z,58.6
2023-04-11T00:07:01.430Z,58.6
2023-04-11T00:08:01.352Z,58.6
2023-04-11T00:09:01.819Z,58.6
2023-04-11T00:10:01.975Z,58.5
2023-04-11T00:11:01.330Z,58.5
2023-04-11T00:12:01.491Z,58.3
2023-04-11T00:13:01.619Z,58.3
2023-04-11T00:14:01.750Z,58.1
2023-04-11T00:15:01.787Z,58.1
2023-04-11T00:16:01.382Z,58.1
2023-04-11T00:17:01.419Z,58.1
2023-04-11T00:18:01.466Z,58.1
2023-04-11T00:19:01.414Z,57.9
2023-04-11T00:20:01.649Z,57.9
2023-04-11T00:21:03.808Z,57.9
2023-04-11T00:22:01.320Z,57.7
2023-04-11T00:23:01.407Z,57.7
2023-04-11T00:24:01.661Z,57.7
2023-04-11T00:25:01.562Z,57.7
2023-04-11T00:26:02.358Z,57.7
2023-04-11T00:27:01.464Z,57.7
2023-04-11T00:28:01.373Z,57.6
2023-04-11T00:29:01.705Z,57.6
2023-04-11T00:30:01.397Z,57.4
2023-04-11T00:31:01.960Z,57.4
2023-04-11T00:32:01.841Z,57.4
2023-04-11T00:33:01.703Z,57.6
2023-04-11T00:34:01.388Z,57.4
2023-04-11T00:35:01.867Z,57.4
2023-04-11T00:36:01.438Z,57.4
2023-04-11T00:37:01.369Z,57.4
2023-04-11T00:38:01.320Z,57.0
2023-04-11T00:39:01.704Z,57.2
2023-04-11T00:40:01.668Z,57.2
2023-04-11T00:41:01.691Z,57.2
2023-04-11T00:42:06.806Z,57.0
2023-04-11T00:43:01.643Z,57.0
2023-04-11T00:44:01.727Z,57.0
2023-04-11T00:45:01.419Z,57.0
2023-04-11T00:46:03.296Z,57.0
2023-04-11T00:47:04.268Z,56.7
2023-04-11T00:48:02.111Z,56.7
2023-04-11T00:49:01.690Z,56.5
2023-04-11T00:50:02.146Z,56.3
2023-04-11T00:51:01.932Z,56.1
2023-04-11T00:52:02.634Z,55.9
2023-04-11T00:53:02.615Z,55.9
2023-04-11T00:54:01.828Z,55.8
2023-04-11T00:55:02.280Z,55.6
2023-04-11T00:56:01.775Z,55.4
2023-04-11T00:57:03.244Z,55.4
2023-04-11T00:58:01.597Z,55.2
2023-04-11T00:59:01.438Z,55.0
2023-04-11T01:00:02.184Z,54.9
2023-04-11T01:01:01.360Z,54.9
2023-04-11T01:02:02.114Z,54.7
2023-04-11T01:03:01.844Z,54.7
2023-04-11T01:04:01.854Z,54.5
2023-04-11T01:05:01.422Z,54.3
2023-04-11T01:06:02.079Z,54.3
2023-04-11T01:07:04.365Z,54.1
2023-04-11T01:08:02.415Z,54.1
2023-04-11T01:09:01.932Z,54.0
2023-04-11T01:10:02.514Z,54.0
2023-04-11T01:11:02.230Z,53.8
2023-04-11T01:12:03.069Z,53.8
2023-04-11T01:13:02.270Z,53.8
2023-04-11T01:14:01.909Z,53.6
2023-04-11T01:15:02.972Z,53.6
2023-04-11T01:16:01.952Z,53.4
2023-04-11T01:17:01.521Z,53.4
2023-04-11T01:18:03.453Z,53.2
2023-04-11T01:19:01.432Z,53.2
2023-04-11T01:20:01.864Z,53.2
2023-04-11T01:21:01.917Z,53.2
2023-04-11T01:22:02.453Z,53.4
2023-04-11T01:23:01.841Z,53.2
2023-04-11T01:24:01.753Z,53.4
2023-04-11T01:25:01.851Z,53.2
2023-04-11T01:26:01.614Z,53.2
2023-04-11T01:27:02.184Z,53.1
2023-04-11T01:28:01.406Z,52.9
2023-04-11T01:29:01.722Z,52.9
2023-04-11T01:30:01.699Z,52.7
2023-04-11T01:31:01.757Z,52.7
2023-04-11T01:32:01.429Z,52.7
2023-04-11T01:33:01.802Z,52.7
2023-04-11T01:34:03.050Z,52.5
2023-04-11T01:35:04.369Z,52.5
2023-04-11T01:36:01.499Z,52.3
2023-04-11T01:37:01.897Z,52.2
2023-04-11T01:38:01.960Z,52.2
2023-04-11T01:39:01.400Z,52.0
2023-04-11T01:40:01.897Z,52.0
2023-04-11T01:41:02.207Z,51.8
2023-04-11T01:42:03.465Z,51.8
2023-04-11T01:43:01.772Z,51.6
2023-04-11T01:44:02.255Z,51.6
2023-04-11T01:45:02.945Z,51.4
2023-04-11T01:46:02.305Z,51.4
2023-04-11T01:47:01.526Z,51.4
2023-04-11T01:48:06.140Z,51.3
2023-04-11T01:49:02.917Z,51.3
2023-04-11T01:50:01.785Z,51.1
2023-04-11T01:51:01.725Z,51.1
2023-04-11T01:52:01.489Z,51.1
2023-04-11T01:53:01.774Z,51.1
2023-04-11T01:54:01.662Z,51.1
2023-04-11T01:55:01.778Z,51.1
2023-04-11T01:56:01.726Z,51.1
2023-04-11T01:57:01.648Z,51.1
2023-04-11T01:58:01.729Z,50.9
2023-04-11T01:59:01.838Z,50.9
2023-04-11T02:00:01.826Z,50.7
2023-04-11T02:01:01.943Z,50.7
2023-04-11T02:02:01.549Z,50.7
2023-04-11T02:03:02.166Z,50.9
2023-04-11T02:04:01.851Z,50.9
2023-04-11T02:05:01.369Z,50.9
2023-04-11T02:06:01.726Z,50.9
2023-04-11T02:07:01.635Z,50.9
2023-04-11T02:08:01.393Z,51.1
2023-04-11T02:09:01.379Z,51.1
2023-04-11T02:10:01.604Z,50.9
2023-04-11T02:11:01.742Z,50.9
2023-04-11T02:12:01.340Z,50.7
2023-04-11T02:13:01.337Z,50.7
2023-04-11T02:14:01.928Z,50.5
2023-04-11T02:15:01.713Z,50.5
2023-04-11T02:16:06.436Z,50.4
2023-04-11T02:17:01.331Z,50.2
2023-04-11T02:18:01.750Z,50.2
2023-04-11T02:19:01.307Z,50.0
2023-04-11T02:20:02.014Z,50.0
2023-04-11T02:21:02.110Z,50.0
2023-04-11T02:22:01.406Z,50.0
2023-04-11T02:23:01.372Z,49.8
2023-04-11T02:24:01.320Z,49.8
2023-04-11T02:25:01.382Z,49.8
2023-04-11T02:26:02.095Z,49.8
2023-04-11T02:27:01.400Z,49.6
2023-04-11T02:28:01.844Z,49.6
2023-04-11T02:29:01.333Z,49.6
2023-04-11T02:30:01.802Z,49.5
2023-04-11T02:31:02.563Z,49.3
2023-04-11T02:32:02.156Z,49.3
2023-04-11T02:33:01.386Z,49.1
2023-04-11T02:34:01.641Z,49.1
2023-04-11T02:35:01.790Z,49.1
2023-04-11T02:36:01.369Z,49.3
2023-04-11T02:37:01.678Z,49.5
2023-04-11T02:38:01.320Z,49.5
2023-04-11T02:39:01.310Z,49.6
2023-04-11T02:40:02.071Z,49.8
2023-04-11T02:41:01.323Z,49.8
2023-04-11T02:42:01.321Z,50.0
2023-04-11T02:43:01.455Z,50.0
2023-04-11T02:44:01.325Z,50.0
2023-04-11T02:45:01.903Z,50.2
2023-04-11T02:46:11.518Z,50.4
2023-04-11T02:47:01.746Z,50.2
2023-04-11T02:48:01.753Z,50.4
2023-04-11T02:49:02.130Z,50.4
2023-04-11T02:50:01.381Z,50.4
2023-04-11T02:51:01.391Z,50.2
2023-04-11T02:52:01.389Z,50.2
2023-04-11T02:53:01.675Z,50.4
2023-04-11T02:54:01.657Z,50.4
2023-04-11T02:55:01.311Z,50.4
2023-04-11T02:56:01.695Z,50.5
2023-04-11T02:57:01.758Z,50.4
2023-04-11T02:58:01.758Z,50.4
2023-04-11T02:59:01.722Z,50.5
2023-04-11T03:00:02.144Z,50.5
2023-04-11T03:01:01.653Z,50.5
2023-04-11T03:02:01.462Z,50.5
2023-04-11T03:03:01.356Z,50.5
2023-04-11T03:04:01.621Z,50.4
2023-04-11T03:05:02.070Z,50.4
2023-04-11T03:06:01.684Z,50.4
2023-04-11T03:07:01.728Z,50.4
2023-04-11T03:08:01.370Z,50.4
2023-04-11T03:09:01.841Z,50.4
2023-04-11T03:10:01.738Z,50.4
2023-04-11T03:11:02.131Z,50.4
2023-04-11T03:12:01.322Z,50.4
2023-04-11T03:13:01.694Z,50.2
2023-04-11T03:14:01.735Z,50.2
2023-04-11T03:15:01.367Z,50.2
2023-04-11T03:16:01.640Z,50.2
2023-04-11T03:17:01.355Z,50.2
2023-04-11T03:18:02.505Z,50.2
2023-04-11T03:19:01.318Z,50.0
2023-04-11T03:20:01.397Z,50.0
2023-04-11T03:21:01.745Z,50.0
2023-04-11T03:22:01.399Z,50.0
2023-04-11T03:23:01.638Z,50.2
2023-04-11T03:24:01.641Z,50.2
2023-04-11T03:25:01.651Z,50.2
2023-04-11T03:26:01.410Z,50.2
2023-04-11T03:27:02.048Z,50.2
2023-04-11T03:28:01.331Z,50.2
2023-04-11T03:29:01.372Z,50.4
2023-04-11T03:30:01.734Z,50.2
2023-04-11T03:31:01.496Z,50.2
2023-04-11T03:32:01.663Z,50.0
2023-04-11T03:33:01.435Z,50.2
2023-04-11T03:34:01.344Z,50.2
2023-04-11T03:35:01.771Z,50.2
2023-04-11T03:36:01.366Z,50.2
2023-04-11T03:37:01.378Z,50.2
2023-04-11T03:38:02.009Z,50.2
2023-04-11T03:39:01.324Z,50.0
2023-04-11T03:40:01.671Z,50.0
2023-04-11T03:41:01.409Z,50.0
2023-04-11T03:42:01.869Z,49.8
2023-04-11T03:43:04.219Z,49.8
2023-04-11T03:44:01.784Z,49.8
2023-04-11T03:45:01.766Z,49.6
2023-04-11T03:46:01.333Z,49.8
2023-04-11T03:47:01.470Z,49.8
2023-04-11T03:48:01.357Z,49.8
2023-04-11T03:49:01.618Z,49.8
2023-04-11T03:50:01.636Z,49.8
2023-04-11T03:51:01.865Z,49.8
2023-04-11T03:52:01.754Z,49.8
2023-04-11T03:57:01.445Z,49.3
2023-04-11T03:58:01.405Z,49.3
2023-04-11T03:59:01.721Z,49.3
2023-04-11T04:00:02.627Z,49.1
2023-04-11T04:01:01.383Z,48.9
2023-04-11T04:02:01.482Z,48.9
2023-04-11T04:03:02.098Z,48.7
2023-04-11T04:04:01.993Z,48.7
2023-04-11T04:05:01.447Z,48.6
2023-04-11T04:06:01.668Z,48.6
2023-04-11T04:07:01.335Z,48.6
2023-04-11T04:08:01.676Z,48.4
2023-04-11T04:09:01.724Z,48.4
2023-04-11T04:10:01.478Z,48.2
2023-04-11T04:11:01.570Z,48.2
2023-04-11T04:12:01.715Z,48.0
2023-04-11T04:13:01.381Z,48.0
2023-04-11T04:14:01.707Z,48.0
2023-04-11T04:15:01.800Z,47.8
2023-04-11T04:16:03.417Z,47.8
2023-04-11T04:17:02.063Z,48.0
2023-04-11T04:18:01.437Z,48.0
2023-04-11T04:19:01.719Z,48.0
2023-04-11T04:20:01.985Z,48.0
2023-04-11T04:21:01.677Z,48.0
2023-04-11T04:22:01.832Z,48.2
2023-04-11T04:23:01.377Z,48.2
2023-04-11T04:24:01.367Z,48.2
2023-04-11T04:25:01.868Z,48.4
2023-04-11T04:26:01.521Z,48.4
2023-04-11T04:27:01.391Z,48.4
2023-04-11T04:28:01.320Z,48.4
2023-04-11T04:29:01.712Z,48.4
2023-04-11T04:30:04.556Z,48.2
2023-04-11T04:31:01.378Z,48.2
2023-04-11T04:32:01.433Z,48.0
2023-04-11T04:33:01.643Z,47.8
2023-04-11T04:34:02.746Z,47.8
2023-04-11T04:35:01.383Z,47.7
2023-04-11T04:36:01.465Z,47.7
2023-04-11T04:37:01.308Z,47.5
2023-04-11T04:38:01.376Z,47.5
2023-04-11T04:39:01.370Z,47.5
2023-04-11T04:40:01.787Z,47.3
2023-04-11T04:41:01.412Z,47.3
2023-04-11T04:42:01.365Z,47.3
2023-04-11T04:43:01.323Z,47.3
2023-04-11T04:44:02.056Z,47.3
2023-04-11T04:45:01.900Z,47.3
2023-04-11T04:46:01.398Z,47.3
2023-04-11T04:47:01.390Z,47.3
2023-04-11T04:48:01.785Z,47.3
2023-04-11T04:49:02.636Z,47.1
2023-04-11T04:50:02.683Z,47.1
2023-04-11T04:51:01.673Z,47.1
2023-04-11T04:52:01.386Z,47.1
2023-04-11T04:53:01.687Z,47.1
2023-04-11T04:54:01.657Z,46.9
2023-04-11T04:55:01.728Z,46.9
2023-04-11T04:56:01.989Z,46.9
2023-04-11T04:57:01.814Z,46.9
2023-04-11T04:58:01.545Z,46.8
2023-04-11T04:59:01.710Z,46.8
2023-04-11T05:00:01.822Z,46.6
2023-04-11T05:01:01.344Z,46.6
2023-04-11T05:02:01.427Z,46.6
2023-04-11T05:03:01.462Z,46.4
2023-04-11T05:04:02.057Z,46.4
2023-04-11T05:05:01.718Z,46.4
2023-04-11T05:06:01.588Z,46.4
2023-04-11T05:07:01.354Z,46.4
2023-04-11T05:08:01.690Z,46.2
2023-04-11T05:09:02.174Z,46.2
2023-04-11T05:10:01.636Z,46.2
2023-04-11T05:11:01.376Z,46.2
2023-04-11T05:12:01.766Z,46.2
2023-04-11T05:13:01.364Z,46.2
2023-04-11T05:14:01.329Z,46.2
2023-04-11T05:15:01.722Z,46.2
2023-04-11T05:16:01.562Z,46.0
2023-04-11T05:17:01.581Z,46.0
2023-04-11T05:18:01.407Z,46.0
2023-04-11T05:19:01.361Z,46.0
2023-04-11T05:20:01.330Z,46.0
2023-04-11T05:21:01.744Z,46.0
2023-04-11T05:22:01.826Z,46.0
2023-04-11T05:23:01.323Z,46.0
2023-04-11T05:24:01.839Z,45.9
2023-04-11T05:25:01.354Z,45.9
2023-04-11T05:26:01.317Z,45.9
2023-04-11T05:27:01.704Z,45.7
2023-04-11T05:28:02.086Z,45.7
2023-04-11T05:29:01.762Z,45.5
2023-04-11T05:30:01.738Z,45.5
2023-04-11T05:31:01.781Z,45.5
2023-04-11T05:32:01.331Z,45.5
2023-04-11T05:33:01.453Z,45.5
2023-04-11T05:34:01.853Z,45.5
2023-04-11T05:35:01.700Z,45.5
2023-04-11T05:36:01.796Z,45.5
2023-04-11T05:37:01.633Z,45.3
2023-04-11T05:38:01.700Z,45.5
2023-04-11T05:39:01.754Z,45.5
2023-04-11T05:40:01.404Z,45.5
2023-04-11T05:41:01.331Z,45.3
2023-04-11T05:42:01.332Z,45.3
2023-04-11T05:43:01.755Z,45.3
2023-04-11T05:44:01.709Z,45.1
2023-04-11T05:45:01.390Z,45.1
2023-04-11T05:46:01.877Z,45.0
2023-04-11T05:47:01.369Z,45.0
2023-04-11T05:48:01.768Z,45.0
2023-04-11T05:49:01.381Z,45.0
2023-04-11T05:50:01.938Z,44.8
2023-04-11T05:51:01.722Z,44.8
2023-04-11T05:52:01.396Z,44.8
2023-04-11T05:53:02.069Z,44.8
2023-04-11T05:54:01.337Z,44.8
2023-04-11T05:55:01.376Z,44.8
2023-04-11T05:56:01.647Z,44.8
2023-04-11T05:57:02.247Z,44.8
2023-04-11T05:58:01.750Z,44.8
2023-04-11T05:59:01.685Z,44.8
2023-04-11T06:00:01.443Z,44.8
2023-04-11T06:01:01.458Z,44.6
2023-04-11T06:02:01.895Z,44.6
2023-04-11T06:03:01.443Z,44.6
2023-04-11T06:04:02.093Z,44.6
2023-04-11T06:05:01.437Z,44.4
2023-04-11T06:06:01.543Z,44.4
2023-04-11T06:07:01.385Z,44.4
2023-04-11T06:08:03.156Z,44.4
2023-04-11T06:09:01.401Z,44.4
2023-04-11T06:10:01.631Z,44.4
2023-04-11T06:11:01.411Z,44.4
2023-04-11T06:12:03.304Z,44.4
2023-04-11T06:13:01.828Z,44.2
2023-04-11T06:14:01.429Z,44.2
2023-04-11T06:15:01.968Z,44.2
2023-04-11T06:16:01.790Z,44.2
2023-04-11T06:17:01.723Z,44.1
2023-04-11T06:18:01.778Z,44.1
2023-04-11T06:19:01.662Z,44.2
2023-04-11T06:20:03.535Z,44.2
2023-04-11T06:21:01.323Z,44.2
2023-04-11T06:22:01.706Z,44.2
2023-04-11T06:23:01.568Z,44.2
2023-04-11T06:24:03.561Z,44.1
2023-04-11T06:25:01.729Z,44.1
2023-04-11T06:26:01.364Z,44.1
2023-04-11T06:27:01.323Z,44.1
2023-04-11T06:28:01.425Z,44.1
2023-04-11T06:29:04.082Z,44.1
2023-04-11T06:30:01.430Z,44.1
2023-04-11T06:31:01.505Z,44.1
2023-04-11T06:32:01.689Z,44.1
2023-04-11T06:33:01.683Z,43.9
2023-04-11T06:34:02.130Z,43.9
2023-04-11T06:35:01.917Z,43.9
2023-04-11T06:36:01.386Z,43.9
2023-04-11T06:37:01.668Z,43.9
2023-04-11T06:38:01.396Z,43.9
2023-04-11T06:39:01.314Z,43.7
2023-04-11T06:40:01.970Z,43.7
2023-04-11T06:41:01.322Z,43.7
2023-04-11T06:42:01.742Z,43.5
2023-04-11T06:43:01.394Z,43.5
2023-04-11T06:44:01.476Z,43.5
2023-04-11T06:45:01.837Z,43.5
2023-04-11T06:46:01.393Z,43.5
2023-04-11T06:47:01.988Z,43.5
2023-04-11T06:48:01.378Z,43.5
2023-04-11T06:49:01.800Z,43.5
2023-04-11T06:50:01.324Z,43.5
2023-04-11T06:51:01.634Z,43.5
2023-04-11T06:52:01.808Z,43.5
2023-04-11T06:53:01.731Z,43.5
2023-04-11T06:54:02.026Z,43.5
2023-04-11T06:55:01.334Z,43.5
2023-04-11T06:56:01.466Z,43.3
2023-04-11T06:57:01.787Z,43.3
2023-04-11T06:58:01.752Z,43.5
2023-04-11T06:59:01.378Z,43.5
2023-04-11T07:00:01.356Z,43.5
2023-04-11T07:01:01.433Z,43.5
2023-04-11T07:02:01.403Z,43.5
2023-04-11T07:03:01.496Z,43.7
2023-04-11T07:04:01.556Z,43.7
2023-04-11T07:05:01.645Z,43.7
2023-04-11T07:06:01.387Z,43.7
2023-04-11T07:07:01.973Z,43.7
2023-04-11T07:08:01.701Z,43.7
2023-04-11T07:09:02.301Z,43.7
2023-04-11T07:10:01.406Z,43.7
2023-04-11T07:11:02.255Z,43.7
2023-04-11T07:12:01.318Z,43.5
2023-04-11T07:13:01.390Z,43.5
2023-04-11T07:14:02.304Z,43.5
2023-04-11T07:15:02.734Z,43.5
2023-04-11T07:16:01.404Z,43.5
2023-04-11T07:17:01.423Z,43.5
2023-04-11T07:18:02.193Z,43.5
2023-04-11T07:19:01.328Z,43.5
2023-04-11T07:20:01.399Z,43.7
2023-04-11T07:21:01.693Z,43.5
2023-04-11T07:22:01.333Z,43.5
2023-04-11T07:23:01.330Z,43.5
2023-04-11T07:24:01.329Z,43.5
2023-04-11T07:25:01.418Z,43.3
2023-04-11T07:26:01.718Z,43.3
2023-04-11T07:27:01.384Z,43.3
2023-04-11T07:28:01.947Z,43.3
2023-04-11T07:29:01.863Z,43.3
2023-04-11T07:30:01.543Z,43.3
2023-04-11T07:31:01.677Z,43.3
2023-04-11T07:32:01.331Z,43.3
2023-04-11T07:33:02.057Z,43.3
2023-04-11T07:34:01.326Z,43.3
2023-04-11T07:35:01.391Z,43.3
2023-04-11T07:36:01.413Z,43.3
2023-04-11T07:37:01.656Z,43.3
2023-04-11T07:38:01.810Z,43.3
2023-04-11T07:39:01.739Z,43.3
2023-04-11T07:40:02.019Z,43.3
2023-04-11T07:41:02.892Z,43.3
2023-04-11T07:42:01.400Z,43.3
2023-04-11T07:43:01.669Z,43.3
2023-04-11T07:44:02.460Z,43.3
2023-04-11T07:45:01.800Z,43.3
2023-04-11T07:46:01.786Z,43.3
2023-04-11T07:47:01.742Z,43.3
2023-04-11T07:48:01.761Z,43.3
2023-04-11T07:49:01.367Z,43.3
2023-04-11T07:50:01.380Z,43.3
2023-04-11T07:51:01.761Z,43.3
2023-04-11T07:52:01.371Z,43.3
2023-04-11T07:53:01.371Z,43.3
2023-04-11T07:54:01.380Z,43.3
2023-04-11T07:55:01.662Z,43.3
2023-04-11T07:56:01.714Z,43.3
2023-04-11T07:57:01.364Z,43.3
2023-04-11T07:58:01.380Z,43.3
2023-04-11T07:59:01.764Z,43.3
2023-04-11T08:00:01.684Z,43.3
2023-04-11T08:01:01.321Z,43.3
2023-04-11T08:02:02.125Z,43.3
2023-04-11T08:03:05.519Z,43.3
2023-04-11T08:04:01.714Z,43.2
2023-04-11T08:05:01.585Z,43.2
2023-04-11T08:06:01.366Z,43.2
2023-04-11T08:07:01.828Z,43.2
2023-04-11T08:08:02.059Z,43.2
2023-04-11T08:09:01.390Z,43.2
2023-04-11T08:10:01.338Z,43.2
2023-04-11T08:11:01.662Z,43.2
2023-04-11T08:12:01.734Z,43.2
2023-04-11T08:13:01.979Z,43.2
2023-04-11T08:14:01.328Z,43.2
2023-04-11T08:15:01.396Z,43.2
2023-04-11T08:16:04.158Z,43.2
2023-04-11T08:17:02.027Z,43.2
2023-04-11T08:18:01.797Z,43.2
2023-04-11T08:19:01.715Z,43.2
2023-04-11T08:20:02.432Z,43.2
2023-04-11T08:21:01.985Z,43.2
2023-04-11T08:22:01.720Z,43.2
2023-04-11T08:23:01.465Z,43.2
2023-04-11T08:24:02.024Z,43.2
2023-04-11T08:25:01.707Z,43.2
2023-04-11T08:26:01.880Z,43.2
2023-04-11T08:27:01.339Z,43.2
2023-04-11T08:28:01.556Z,43.2
2023-04-11T08:29:02.195Z,43.2
2023-04-11T08:30:03.047Z,43.2
2023-04-11T08:31:01.433Z,43.2
2023-04-11T08:32:01.357Z,43.2
2023-04-11T08:33:01.427Z,43.2
2023-04-11T08:34:02.638Z,43.2
2023-04-11T08:35:02.133Z,43.2
2023-04-11T08:36:01.366Z,43.2
2023-04-11T08:37:01.733Z,43.2
2023-04-11T08:38:01.332Z,43.2
2023-04-11T08:39:01.867Z,43.2
2023-04-11T08:40:01.909Z,43.2
2023-04-11T08:41:01.840Z,43.2
2023-04-11T08:42:02.232Z,43.2
2023-04-11T08:43:01.584Z,43.2
2023-04-11T08:44:01.447Z,43.2
2023-04-11T08:45:03.502Z,43.5
2023-04-11T08:46:02.344Z,43.5
2023-04-11T08:47:01.893Z,43.5
2023-04-11T08:48:01.344Z,43.5
2023-04-11T08:49:01.690Z,43.5
2023-04-11T08:50:01.883Z,43.3
2023-04-11T08:51:01.740Z,43.3
2023-04-11T08:52:02.220Z,43.3
2023-04-11T08:53:02.346Z,43.3
2023-04-11T08:54:04.930Z,43.3
2023-04-11T08:55:01.329Z,43.2
2023-04-11T08:56:03.050Z,43.2
2023-04-11T08:57:01.666Z,43.2
2023-04-11T08:58:01.382Z,43.2
2023-04-11T08:59:01.726Z,43.2
2023-04-11T09:00:03.864Z,43.3
2023-04-11T09:01:20.826Z,43.3
2023-04-11T09:02:07.272Z,43.3
2023-04-11T09:03:03.504Z,43.3
2023-04-11T09:04:03.202Z,43.3
2023-04-11T09:05:01.778Z,43.3
2023-04-11T09:06:08.734Z,43.3
2023-04-11T09:07:01.516Z,43.2
2023-04-11T09:08:04.011Z,43.2
2023-04-11T09:09:03.285Z,43.2
2023-04-11T09:10:17.176Z,43.2
2023-04-11T09:11:01.629Z,43.2
2023-04-11T09:12:02.314Z,43.0
2023-04-11T09:13:17.751Z,43.0
2023-04-11T09:14:06.102Z,43.0
2023-04-11T09:15:16.723Z,43.0
2023-04-11T09:16:06.904Z,42.8
2023-04-11T09:17:03.717Z,42.8
2023-04-11T09:18:01.463Z,42.6
2023-04-11T09:19:02.989Z,42.6
2023-04-11T09:20:15.119Z,42.6
2023-04-11T09:21:03.440Z,42.6
2023-04-11T09:22:03.379Z,42.6
2023-04-11T09:23:01.406Z,42.6
2023-04-11T09:24:14.872Z,42.6
2023-04-11T09:25:02.532Z,42.6
2023-04-11T09:26:03.776Z,42.6
2023-04-11T09:27:10.330Z,42.6
2023-04-11T09:28:10.114Z,42.6
2023-04-11T09:29:01.433Z,42.6
2023-04-11T09:30:01.992Z,42.4
2023-04-11T09:31:01.475Z,42.4
2023-04-11T09:32:01.427Z,42.4
2023-04-11T09:33:19.328Z,42.3
2023-04-11T09:34:01.724Z,42.3
2023-04-11T09:35:11.290Z,42.3
2023-04-11T09:36:20.282Z,42.1
2023-04-11T09:37:01.401Z,42.1
2023-04-11T09:38:01.451Z,42.1
2023-04-11T09:39:19.198Z,41.9
2023-04-11T09:40:01.964Z,41.9
2023-04-11T09:41:03.531Z,41.9
2023-04-11T09:42:20.783Z,41.9
2023-04-11T09:43:03.071Z,41.9
2023-04-11T09:44:01.899Z,41.9
2023-04-11T09:45:02.045Z,41.7
2023-04-11T09:46:09.463Z,41.7
2023-04-11T09:47:01.714Z,41.7
2023-04-11T09:48:01.373Z,41.5
2023-04-11T09:49:02.763Z,41.5
2023-04-11T09:50:02.489Z,41.5
2023-04-11T09:51:03.627Z,41.5
2023-04-11T09:52:02.944Z,41.5
2023-04-11T09:53:02.529Z,41.7
2023-04-11T09:54:02.257Z,41.7
2023-04-11T09:55:02.485Z,41.7
2023-04-11T09:56:02.035Z,41.7
2023-04-11T09:57:04.496Z,41.7
2023-04-11T09:58:03.474Z,41.7
2023-04-11T09:59:02.529Z,41.7
2023-04-11T10:00:01.888Z,41.7
2023-04-11T10:01:02.990Z,41.9
2023-04-11T10:02:03.187Z,41.9
2023-04-11T10:03:01.577Z,41.9
2023-04-11T10:04:01.685Z,41.9
2023-04-11T10:05:01.509Z,41.9
2023-04-11T10:06:04.673Z,41.9
2023-04-11T10:07:11.796Z,41.9
2023-04-11T10:08:04.903Z,41.9
2023-04-11T10:09:06.871Z,42.1
2023-04-11T10:10:02.348Z,42.1
2023-04-11T10:11:03.139Z,42.1
2023-04-11T10:12:02.181Z,42.3
2023-04-11T10:13:01.707Z,42.1
2023-04-11T10:14:01.623Z,42.4
2023-04-11T10:15:06.511Z,42.4
2023-04-11T10:16:05.862Z,42.4
2023-04-11T10:17:12.143Z,42.4
2023-04-11T10:18:10.598Z,42.6
2023-04-11T10:19:20.778Z,42.6
2023-04-11T10:20:11.269Z,42.6
2023-04-11T10:21:02.506Z,42.4
2023-04-11T10:22:01.408Z,42.4
2023-04-11T10:23:01.766Z,42.4
2023-04-11T10:24:09.533Z,42.4
2023-04-11T10:25:14.533Z,42.4
2023-04-11T10:26:01.441Z,42.4
2023-04-11T10:27:02.754Z,42.4
2023-04-11T10:28:01.784Z,42.4
2023-04-11T10:29:01.760Z,42.6
2023-04-11T10:30:01.413Z,42.6
2023-04-11T10:31:02.998Z,42.6
2023-04-11T10:32:09.246Z,42.8
2023-04-11T10:33:12.231Z,42.8
2023-04-11T10:34:12.352Z,42.8
2023-04-11T10:35:20.780Z,43.0
2023-04-11T10:36:03.864Z,43.0
2023-04-11T10:37:02.770Z,43.0
2023-04-11T10:38:01.730Z,43.2
2023-04-11T10:39:01.344Z,43.2
2023-04-11T10:40:04.907Z,43.2
2023-04-11T10:41:15.170Z,43.2
2023-04-11T10:42:20.790Z,43.2
2023-04-11T10:43:18.737Z,43.2
2023-04-11T10:44:13.396Z,43.2
2023-04-11T10:45:15.841Z,43.2
2023-04-11T10:46:16.816Z,43.3
2023-04-11T10:47:01.830Z,43.3
2023-04-11T10:48:03.802Z,43.3
2023-04-11T10:49:03.265Z,43.5
2023-04-11T10:50:02.677Z,43.5
2023-04-11T10:51:20.802Z,43.5
2023-04-11T10:52:19.375Z,43.5
2023-04-11T10:53:03.833Z,43.5
2023-04-11T10:54:02.130Z,43.5
2023-04-11T10:55:14.007Z,43.5
2023-04-11T10:56:02.015Z,43.7
2023-04-11T10:57:01.410Z,43.7
2023-04-11T10:58:04.271Z,43.5
2023-04-11T10:59:01.699Z,43.5
2023-04-11T11:01:21.243Z,43.5
2023-04-11T11:02:02.121Z,43.5
2023-04-11T11:03:02.168Z,43.5
2023-04-11T11:04:03.271Z,43.5
2023-04-11T11:05:11.481Z,43.5
2023-04-11T11:06:03.308Z,43.5
2023-04-11T11:07:03.279Z,43.5
2023-04-11T11:08:01.374Z,43.5
2023-04-11T11:09:19.488Z,43.7
2023-04-11T11:10:01.343Z,43.7
2023-04-11T11:11:03.140Z,43.7
2023-04-11T11:12:05.461Z,43.7
2023-04-11T11:13:01.770Z,43.9
2023-04-11T11:14:01.320Z,43.9
2023-04-11T11:15:12.018Z,44.1
2023-04-11T11:16:01.361Z,44.1
2023-04-11T11:17:02.019Z,44.2
2023-04-11T11:18:03.385Z,44.2
2023-04-11T11:19:01.476Z,44.4
2023-04-11T11:20:02.505Z,44.6
2023-04-11T11:21:01.782Z,44.8
2023-04-11T11:22:01.607Z,44.8
2023-04-11T11:23:02.800Z,45.0
2023-04-11T11:24:02.398Z,45.1
2023-04-11T11:25:07.320Z,45.3
2023-04-11T11:26:01.790Z,45.5
2023-04-11T11:27:01.432Z,45.9
2023-04-11T11:28:03.714Z,46.0
2023-04-11T11:29:02.154Z,46.2
2023-04-11T11:30:09.256Z,46.4
2023-04-11T11:31:01.604Z,46.8
2023-04-11T11:32:02.480Z,46.9
2023-04-11T11:33:15.010Z,47.1
2023-04-11T11:34:21.306Z,47.5
2023-04-11T11:35:12.395Z,47.8
2023-04-11T11:36:03.446Z,48.0
2023-04-11T11:37:02.891Z,48.4
2023-04-11T11:38:01.408Z,48.6
2023-04-11T11:39:02.140Z,48.9
2023-04-11T11:40:01.599Z,49.1
2023-04-11T11:41:02.366Z,49.3
2023-04-11T11:42:01.679Z,49.3
2023-04-11T11:43:01.757Z,49.6
2023-04-11T11:44:02.254Z,49.8
2023-04-11T11:45:14.925Z,50.0
2023-04-11T11:46:10.919Z,50.2
2023-04-11T11:47:02.484Z,50.4
2023-04-11T11:48:01.427Z,50.4
2023-04-11T11:49:03.323Z,50.5
2023-04-11T11:50:01.378Z,50.7
2023-04-11T11:51:01.404Z,50.9
2023-04-11T11:52:01.328Z,51.1
2023-04-11T11:53:11.843Z,51.1
2023-04-11T11:54:03.586Z,51.3
2023-04-11T11:55:03.119Z,51.3
2023-04-11T11:56:11.994Z,51.4
2023-04-11T11:57:01.747Z,51.6
2023-04-11T11:58:01.749Z,51.8
2023-04-11T11:59:01.869Z,52.0
2023-04-11T12:00:02.555Z,52.2
2023-04-11T12:01:01.494Z,52.3
2023-04-11T12:02:03.228Z,52.5
2023-04-11T12:03:02.043Z,52.5
2023-04-11T12:04:05.011Z,52.7
2023-04-11T12:05:04.297Z,52.7
2023-04-11T12:06:01.374Z,52.9
2023-04-11T12:07:07.972Z,53.2
2023-04-11T12:08:03.572Z,53.2
2023-04-11T12:09:03.082Z,53.6
2023-04-11T12:10:02.731Z,53.6
2023-04-11T12:11:01.329Z,53.6
2023-04-11T12:12:01.762Z,53.6
2023-04-11T12:13:01.411Z,53.6
2023-04-11T12:14:01.337Z,53.4
2023-04-11T12:15:03.044Z,53.6
2023-04-11T12:16:01.826Z,53.8
2023-04-11T12:17:01.346Z,53.8
2023-04-11T12:18:04.840Z,54.0
2023-04-11T12:19:03.048Z,54.1
2023-04-11T12:20:02.523Z,54.3
2023-04-11T12:21:01.312Z,54.5
2023-04-11T12:22:01.372Z,54.7
2023-04-11T12:23:01.385Z,54.9
2023-04-11T12:24:01.635Z,55.0
2023-04-11T12:25:06.348Z,55.2
2023-04-11T12:26:01.647Z,55.4
2023-04-11T12:27:06.881Z,55.6
2023-04-11T12:28:01.704Z,55.8
2023-04-11T12:29:01.365Z,55.9
2023-04-11T12:30:02.129Z,56.1
2023-04-11T12:31:01.402Z,56.1
2023-04-11T12:32:01.320Z,56.3
2023-04-11T12:33:01.428Z,56.7
2023-04-11T12:34:01.667Z,56.8
2023-04-11T12:35:02.563Z,57.0
2023-04-11T12:36:01.625Z,57.4
2023-04-11T12:37:01.587Z,57.6
2023-04-11T12:38:01.769Z,57.9
2023-04-11T12:39:01.387Z,58.1
2023-04-11T12:40:03.064Z,58.3
2023-04-11T12:41:26.384Z,58.5
2023-04-11T12:42:01.337Z,58.8
2023-04-11T12:43:01.390Z,59.0
2023-04-11T12:44:01.396Z,59.4
2023-04-11T12:45:01.381Z,59.5
2023-04-11T12:46:01.371Z,59.7
2023-04-11T12:47:01.722Z,60.1
2023-04-11T12:48:01.973Z,60.3
2023-04-11T12:49:01.389Z,60.3
2023-04-11T12:50:02.049Z,60.8
2023-04-11T12:51:01.311Z,61.2
2023-04-11T12:52:01.657Z,61.5
2023-04-11T12:53:01.422Z,61.9
2023-04-11T12:54:01.315Z,62.2
2023-04-11T12:55:02.205Z,62.4
2023-04-11T12:56:01.696Z,62.4
2023-04-11T12:57:02.000Z,62.6
2023-04-11T12:58:01.442Z,62.6
2023-04-11T12:59:01.892Z,62.6
2023-04-11T13:00:01.824Z,62.8
2023-04-11T13:01:01.332Z,63.0
2023-04-11T13:02:01.611Z,63.0
2023-04-11T13:03:01.548Z,63.1
2023-04-11T13:04:01.537Z,63.3
2023-04-11T13:05:01.533Z,63.7
2023-04-11T13:06:01.367Z,63.9
2023-04-11T13:07:01.684Z,64.0
2023-04-11T13:08:01.311Z,64.4
2023-04-11T13:09:01.319Z,64.6
2023-04-11T13:10:03.121Z,64.8
2023-04-11T13:11:01.315Z,64.9
2023-04-11T13:12:01.792Z,65.3
2023-04-11T13:13:11.759Z,65.5
2023-04-11T13:14:01.327Z,65.5
2023-04-11T13:15:01.373Z,65.7
2023-04-11T13:16:01.437Z,65.8
2023-04-11T13:17:01.685Z,66.2
2023-04-11T13:18:01.385Z,66.6
2023-04-11T13:19:01.669Z,66.6
2023-04-11T13:20:01.412Z,66.7
2023-04-11T13:21:01.707Z,66.7
2023-04-11T13:22:01.747Z,66.9
2023-04-11T13:23:01.362Z,67.1